Time;durP1;ratioP1;P1;durP2;ratioP2;P2;SDS_P1;SDS_P2;PMS_P1;PMS_P2;Temp;Humidity;BMP_temperature;BMP_pressure;BME280_temperature;BME280_humidity;BME280_pressure;Samples;Min_cycle;Max_cycle;Signal;HPM_P1;HPM_P2
2021/03/20 00:01:32;;;;;;;55.47;29.77;;;;;;;-3.82;82.56;92920.09;1813630;79;22514;-73
2021/03/20 00:03:59;;;;;;;33.73;18.60;;;;;;;-3.86;82.71;92919.16;1813502;79;21103;-72
2021/03/20 00:06:31;;;;;;;43.17;23.03;;;;;;;-3.86;82.66;92917.06;1813748;79;21137;-73
2021/03/20 00:08:59;;;;;;;30.37;15.67;;;;;;;-3.83;82.61;92913.22;1813904;79;21098;-72
2021/03/20 00:11:26;;;;;;;29.57;14.73;;;;;;;-3.82;82.56;92914.77;1813850;78;21149;-72
2021/03/20 00:13:57;;;;;;;30.77;15.07;;;;;;;-3.79;82.42;92912.04;1813886;79;21190;-72
2021/03/20 00:16:25;;;;;;;33.13;15.40;;;;;;;-3.76;82.16;92912.70;1813915;78;21152;-73
2021/03/20 00:18:53;;;;;;;28.43;15.57;;;;;;;-3.76;82.12;92916.17;1813823;79;21074;-72
2021/03/20 00:21:21;;;;;;;25.93;14.47;;;;;;;-3.79;82.19;92922.67;1813919;78;21059;-73
2021/03/20 00:23:48;;;;;;;30.10;16.17;;;;;;;-3.80;82.32;92920.56;1814034;79;21073;-73
2021/03/20 00:26:16;;;;;;;32.17;15.67;;;;;;;-3.82;82.29;92917.43;1813929;79;21758;-73
2021/03/20 00:28:44;;;;;;;31.57;17.27;;;;;;;-3.82;82.36;92914.00;1813953;79;21078;-74
2021/03/20 00:31:12;;;;;;;31.47;17.53;;;;;;;-3.86;82.36;92919.16;1813804;79;21063;-72
2021/03/20 00:33:42;;;;;;;30.87;17.67;;;;;;;-3.87;82.57;92923.45;1813858;79;21058;-73
2021/03/20 00:36:11;;;;;;;38.87;20.00;;;;;;;-3.87;82.68;92926.91;1814013;79;21050;-72
2021/03/20 00:38:38;;;;;;;37.53;18.57;;;;;;;-3.83;82.78;92909.79;1813804;79;21814;-72
2021/03/20 00:41:07;;;;;;;34.90;22.47;;;;;;;-3.78;82.63;92915.70;1813957;79;21121;-73
2021/03/20 00:43:35;;;;;;;38.40;20.03;;;;;;;-3.73;82.57;92914.73;1813767;78;21149;-72
2021/03/20 00:46:04;;;;;;;39.43;20.73;;;;;;;-3.71;82.45;92915.98;1813946;78;21042;-71
2021/03/20 00:48:35;;;;;;;37.93;20.33;;;;;;;-3.71;82.34;92909.34;1813842;78;21050;-72
2021/03/20 00:51:02;;;;;;;42.27;23.03;;;;;;;-3.68;82.34;92915.36;1813710;79;21250;-71
2021/03/20 00:53:31;;;;;;;39.17;22.63;;;;;;;-3.70;82.27;92909.56;1813769;79;21074;-72
2021/03/20 00:55:59;;;;;;;40.07;23.67;;;;;;;-3.73;82.24;92915.52;1813961;79;21142;-73
2021/03/20 00:58:36;;;;;;;50.87;25.77;;;;;;;-3.78;82.07;92906.40;1813986;79;21126;-72
2021/03/20 01:01:12;;;;;;;51.33;27.20;;;;;;;-3.87;81.90;92912.82;1813802;78;21062;-72
2021/03/20 01:03:41;;;;;;;49.87;27.80;;;;;;;-3.97;82.02;92911.30;1813841;79;22308;-71
2021/03/20 01:06:13;;;;;;;48.70;27.20;;;;;;;-4.05;82.24;92917.42;1813754;79;21078;-70
2021/03/20 01:08:41;;;;;;;47.27;26.77;;;;;;;-4.06;82.68;92912.66;1813222;79;20990;-71
2021/03/20 01:11:09;;;;;;;48.87;28.47;;;;;;;-4.03;82.75;92920.52;1812668;79;21193;-71
2021/03/20 01:13:37;;;;;;;49.07;28.40;;;;;;;-4.04;82.64;92913.66;1812500;79;21165;-71
2021/03/20 01:16:05;;;;;;;49.33;28.10;;;;;;;-4.06;82.51;92920.63;1813101;79;21923;-72
2021/03/20 01:18:34;;;;;;;43.07;23.03;;;;;;;-4.08;82.65;92918.82;1812349;79;21165;-71
2021/03/20 01:21:02;;;;;;;40.83;22.40;;;;;;;-4.10;82.54;92917.56;1813056;79;21181;-71
2021/03/20 01:23:29;;;;;;;44.10;23.90;;;;;;;-4.16;82.52;92914.31;1813426;79;21055;-70
2021/03/20 01:25:57;;;;;;;35.07;21.23;;;;;;;-4.24;82.62;92917.77;1813790;78;21117;-71
2021/03/20 01:28:27;;;;;;;20.00;12.97;;;;;;;-4.29;82.79;92923.22;1813945;79;22243;-72
2021/03/20 01:30:54;;;;;;;24.43;13.03;;;;;;;-4.33;82.76;92915.66;1813637;79;21509;-71
2021/03/20 01:33:22;;;;;;;19.73;11.93;;;;;;;-4.37;82.70;92916.05;1813849;79;21054;-70
2021/03/20 01:35:50;;;;;;;16.80;10.27;;;;;;;-4.43;82.72;92911.47;1813824;78;21532;-71
2021/03/20 01:38:18;;;;;;;18.87;11.60;;;;;;;-4.47;82.77;92911.86;1813934;79;21105;-70
2021/03/20 01:40:50;;;;;;;20.00;11.50;;;;;;;-4.49;82.89;92917.46;1813772;78;22309;-72
2021/03/20 01:43:21;;;;;;;16.37;9.93;;;;;;;-4.47;83.19;92915.84;1813804;79;21129;-71
2021/03/20 01:45:48;;;;;;;11.60;9.03;;;;;;;-4.40;83.23;92921.43;1813723;79;20972;-71
2021/03/20 01:48:31;;;;;;;12.70;8.47;;;;;;;-4.33;83.11;92924.94;1813926;78;21125;-71
2021/03/20 01:51:01;;;;;;;13.00;7.73;;;;;;;-4.27;83.05;92922.38;1813662;79;21595;-73
2021/03/20 01:53:48;;;;;;;13.67;7.83;;;;;;;-4.23;82.85;92924.08;1814069;79;22562;-73
2021/03/20 01:56:20;;;;;;;12.40;7.83;;;;;;;-4.24;82.65;92927.06;1813843;79;21110;-71
2021/03/20 01:58:48;;;;;;;11.80;6.90;;;;;;;-4.27;82.47;92926.35;1813894;79;21129;-71
2021/03/20 02:01:23;;;;;;;12.10;7.80;;;;;;;-4.32;82.33;92924.65;1813860;79;21126;-72
2021/03/20 02:03:51;;;;;;;16.23;7.40;;;;;;;-4.37;82.32;92924.79;1813856;79;26528;-73
2021/03/20 02:06:18;;;;;;;9.33;6.70;;;;;;;-4.42;82.37;92932.38;1813897;79;22650;-72
2021/03/20 02:08:47;;;;;;;11.20;6.50;;;;;;;-4.45;82.40;92927.69;1813898;79;21137;-73
2021/03/20 02:11:38;;;;;;;10.77;6.13;;;;;;;-4.48;82.42;92930.19;1854937;75;21234;-73
2021/03/20 02:14:55;;;;;;;10.40;7.37;;;;;;;-4.53;82.52;92936.44;1858585;75;21105;-72
2021/03/20 02:17:57;;;;;;;13.47;8.20;;;;;;;-4.58;82.70;92939.25;1822541;78;21046;-71
2021/03/20 02:20:45;;;;;;;16.60;8.17;;;;;;;-4.61;82.89;92933.78;1822455;78;21188;-72
2021/03/20 02:23:59;;;;;;;11.87;8.17;;;;;;;-4.61;82.96;92931.13;1814422;78;21098;-72
2021/03/20 02:27:01;;;;;;;16.20;8.90;;;;;;;-4.65;83.05;92933.63;1805673;79;21066;-71
2021/03/20 02:30:02;;;;;;;10.70;7.40;;;;;;;-4.68;83.51;92930.27;1805775;79;21070;-73
2021/03/20 02:32:52;;;;;;;9.03;5.20;;;;;;;-4.57;83.62;92930.74;1803238;79;21050;-70
2021/03/20 02:35:52;;;;;;;8.27;6.03;;;;;;;-4.59;83.34;92928.38;1877965;76;22069;-72
2021/03/20 02:38:35;;;;;;;8.90;6.53;;;;;;;-4.66;83.31;92927.55;1827462;76;21153;-71
2021/03/20 02:41:25;;;;;;;8.13;6.07;;;;;;;-4.74;83.38;92932.31;1816105;78;21058;-71
2021/03/20 02:44:25;;;;;;;10.37;5.83;;;;;;;-4.81;83.48;92929.34;1806163;79;21489;-72
2021/03/20 02:47:05;;;;;;;8.03;6.40;;;;;;;-4.85;83.60;92932.38;1860844;76;21614;-72
2021/03/20 02:49:59;;;;;;;12.57;7.40;;;;;;;-4.90;83.74;92935.16;1848818;76;22217;-73
2021/03/20 02:52:46;;;;;;;6.23;5.20;;;;;;;-4.97;83.95;92935.61;1817682;78;21228;-71
2021/03/20 02:55:24;;;;;;;10.17;6.70;;;;;;;-5.00;84.11;92936.77;1814222;79;21584;-72
2021/03/20 02:58:02;;;;;;;12.03;6.83;;;;;;;-5.04;84.36;92940.62;1814222;79;21485;-72
2021/03/20 03:00:38;;;;;;;9.37;6.63;;;;;;;-5.05;84.44;92944.34;1812232;79;21497;-73
2021/03/20 03:03:06;;;;;;;9.83;7.03;;;;;;;-5.08;84.45;92948.92;1814124;79;21651;-73
2021/03/20 03:05:40;;;;;;;10.07;7.07;;;;;;;-5.10;84.53;92947.69;1844222;76;21221;-72
2021/03/20 03:08:32;;;;;;;10.13;6.07;;;;;;;-5.13;84.60;92947.20;1837231;76;21125;-72
2021/03/20 03:11:13;;;;;;;9.87;5.87;;;;;;;-5.13;84.66;92945.11;1818313;78;21041;-72
2021/03/20 03:13:45;;;;;;;13.90;7.90;;;;;;;-5.13;84.66;92945.88;1812448;78;21169;-71
2021/03/20 03:16:22;;;;;;;13.53;6.43;;;;;;;-5.11;84.70;92950.89;1812911;77;21173;-71
2021/03/20 03:18:53;;;;;;;11.80;7.17;;;;;;;-5.09;84.84;92956.66;1816823;78;21086;-73
2021/03/20 03:21:20;;;;;;;9.40;6.07;;;;;;;-5.10;84.85;92953.00;1819951;78;21070;-73
2021/03/20 03:23:47;;;;;;;8.43;6.97;;;;;;;-5.10;84.92;92958.30;1819856;78;21078;-72
2021/03/20 03:26:23;;;;;;;10.07;7.07;;;;;;;-5.13;84.90;92958.36;1820089;78;21532;-73
2021/03/20 03:29:02;;;;;;;11.20;8.10;;;;;;;-5.16;85.02;92955.77;1819976;78;21846;-74
2021/03/20 03:31:34;;;;;;;9.03;7.27;;;;;;;-5.14;85.05;92957.58;1819630;78;21070;-73
2021/03/20 03:34:24;;;;;;;12.63;6.80;;;;;;;-5.14;85.15;92952.28;1819964;78;21148;-73
2021/03/20 03:37:09;;;;;;;7.57;5.77;;;;;;;-5.13;85.10;92956.48;1819557;78;21481;-72
2021/03/20 03:39:51;;;;;;;12.03;5.97;;;;;;;-5.12;85.04;92961.23;1820046;78;21117;-72
2021/03/20 03:42:19;;;;;;;10.30;6.47;;;;;;;-5.10;84.98;92967.03;1819796;78;21362;-73
2021/03/20 03:44:48;;;;;;;8.77;6.73;;;;;;;-5.09;85.04;92967.26;1819353;78;21129;-72
2021/03/20 03:47:23;;;;;;;9.10;5.87;;;;;;;-5.09;85.00;92974.44;1819657;78;21555;-74
2021/03/20 03:49:54;;;;;;;10.35;7.05;;;;;;;-5.08;84.97;92973.34;1819804;78;21145;-72
2021/03/20 03:52:21;;;;;;;15.07;8.13;;;;;;;-5.10;85.04;92972.87;1819875;78;21065;-73
2021/03/20 03:54:48;;;;;;;8.33;6.80;;;;;;;-5.07;85.08;92976.25;1820014;78;21341;-74
2021/03/20 03:57:24;;;;;;;9.40;6.47;;;;;;;-5.08;84.98;92978.64;1819884;78;21126;-73
2021/03/20 04:00:13;;;;;;;9.30;6.37;;;;;;;-5.09;84.96;92973.89;1819084;78;21169;-73
2021/03/20 04:03:05;;;;;;;8.00;6.03;;;;;;;-5.08;84.93;92978.64;1819881;78;21050;-72
2021/03/20 04:05:36;;;;;;;9.97;5.97;;;;;;;-5.08;84.90;92979.97;1819611;78;21579;-73
2021/03/20 04:08:30;;;;;;;11.23;7.03;;;;;;;-5.09;84.89;92979.19;1824099;78;21360;-73
2021/03/20 04:11:08;;;;;;;11.40;6.93;;;;;;;-5.10;84.92;92978.95;1825681;78;21173;-71
2021/03/20 04:13:47;;;;;;;11.23;5.90;;;;;;;-5.06;84.97;92983.11;1826142;78;21567;-71
2021/03/20 04:16:24;;;;;;;9.60;5.83;;;;;;;-5.04;84.90;92984.37;1825912;78;21118;-71
2021/03/20 04:19:13;;;;;;;9.93;6.00;;;;;;;-5.00;84.95;92989.29;1791406;78;21166;-71
2021/03/20 04:22:02;;;;;;;10.27;6.43;;;;;;;-4.90;84.99;92988.20;1823074;78;22270;-71
2021/03/20 04:24:51;;;;;;;14.13;6.60;;;;;;;-4.82;84.98;92990.64;1820707;78;21073;-72
2021/03/20 04:27:26;;;;;;;11.70;7.30;;;;;;;-4.78;84.80;92994.23;1798196;78;21143;-73
2021/03/20 04:30:00;;;;;;;;;;;;;;;-4.77;84.75;92992.61;1826815;76;21196;-71
2021/03/20 04:32:45;;;;;;;10.30;7.03;;;;;;;-4.69;84.76;92997.70;1820388;78;20501;-71
2021/03/20 04:35:24;;;;;;;14.00;8.17;;;;;;;-4.61;84.61;92990.84;1877339;76;22198;-72
2021/03/20 04:37:53;;;;;;;10.63;6.97;;;;;;;-4.50;84.38;93003.48;1821478;76;21618;-72
2021/03/20 04:40:50;;;;;;;11.67;6.73;;;;;;;-4.45;84.03;93007.30;1813791;79;21058;-72
2021/03/20 04:43:20;;;;;;;10.20;6.37;;;;;;;-4.41;83.89;92999.50;1814641;79;21580;-73
2021/03/20 04:45:58;;;;;;;20.20;11.40;;;;;;;-4.41;83.59;93008.24;1814770;79;21055;-73
2021/03/20 04:48:32;;;;;;;20.77;11.53;;;;;;;-4.44;83.44;93012.88;1814082;76;22709;-73
2021/03/20 04:51:08;;;;;;;18.17;10.33;;;;;;;-4.46;83.41;93014.27;1813678;77;21496;-72
2021/03/20 04:53:36;;;;;;;20.97;12.57;;;;;;;-4.50;83.41;93017.30;1850514;77;21129;-73
2021/03/20 04:56:06;;;;;;;20.33;13.40;;;;;;;-4.49;83.64;93014.88;1823769;77;21111;-73
2021/03/20 04:58:44;;;;;;;21.40;12.30;;;;;;;-4.46;83.70;93016.37;1863854;76;21107;-72
2021/03/20 05:01:23;;;;;;;22.80;13.13;;;;;;;-4.41;83.64;93024.17;1860884;76;21197;-72
2021/03/20 05:04:12;;;;;;;20.90;11.43;;;;;;;-4.39;83.54;93027.86;1860816;74;21479;-72
2021/03/20 05:06:41;;;;;;;15.03;9.77;;;;;;;-4.40;83.33;93032.91;1861923;76;21075;-73
2021/03/20 05:09:11;;;;;;;15.47;9.40;;;;;;;-4.38;83.25;93032.06;1817235;76;21082;-73
2021/03/20 05:11:59;;;;;;;17.23;9.43;;;;;;;-4.44;82.95;93035.44;1883659;76;21457;-72
2021/03/20 05:14:55;;;;;;;16.20;10.40;;;;;;;-4.48;83.14;93039.77;1813932;79;21506;-72
2021/03/20 05:17:23;;;;;;;17.25;10.03;;;;;;;-4.45;83.40;93041.03;1882158;76;21155;-72
2021/03/20 05:19:52;;;;;;;20.80;11.27;;;;;;;-4.40;83.54;93042.20;1829136;75;21138;-73
2021/03/20 05:22:27;;;;;;;20.83;13.17;;;;;;;-4.34;83.55;93047.61;1813606;79;21518;-72
2021/03/20 05:24:55;;;;;;;24.80;12.97;;;;;;;-4.29;83.45;93045.34;1814753;79;21113;-73
2021/03/20 05:27:26;;;;;;;22.50;11.97;;;;;;;-4.26;83.28;93045.50;1814352;78;21809;-72
2021/03/20 05:29:54;;;;;;;27.20;16.17;;;;;;;-4.22;83.27;93045.11;1812089;79;21093;-72
2021/03/20 05:32:31;;;;;;;27.50;14.83;;;;;;;-4.15;83.33;93040.66;1847900;77;21181;-73
2021/03/20 05:35:01;;;;;;;28.23;15.37;;;;;;;-4.06;83.00;93043.31;1866270;76;21041;-72
2021/03/20 05:37:36;;;;;;;27.07;16.70;;;;;;;-4.04;82.74;93046.45;1842335;76;21070;-72
2021/03/20 05:40:09;;;;;;;27.65;16.93;;;;;;;-4.02;82.81;93046.93;1840084;76;22235;-73
2021/03/20 05:42:59;;;;;;;29.37;16.90;;;;;;;-4.00;82.51;93055.35;1861942;76;21141;-72
2021/03/20 05:46:09;;;;;;;26.90;16.20;;;;;;;-3.95;82.52;93049.87;1833076;78;21026;-72
2021/03/20 05:48:38;;;;;;;28.20;16.83;;;;;;;-3.85;82.31;93062.07;1820569;78;21057;-71
2021/03/20 05:51:11;;;;;;;30.77;17.53;;;;;;;-3.79;82.05;93058.17;1820561;78;21129;-73
2021/03/20 05:53:47;;;;;;;27.43;17.20;;;;;;;-3.72;81.94;93062.47;1870937;76;21701;-71
2021/03/20 05:56:20;;;;;;;31.90;18.17;;;;;;;-3.68;81.82;93062.06;1840597;76;21126;-73
2021/03/20 05:59:25;;;;;;;25.27;16.90;;;;;;;-3.67;81.84;93062.30;1858442;76;21009;-72
2021/03/20 06:02:02;;;;;;;29.90;17.27;;;;;;;-3.69;81.95;93065.25;1846422;76;21117;-72
2021/03/20 06:04:35;;;;;;;30.00;17.90;;;;;;;-3.62;82.02;93067.44;1827531;77;21062;-72
2021/03/20 06:07:26;;;;;;;27.93;16.43;;;;;;;-3.50;81.81;93067.59;1836386;76;22561;-73
2021/03/20 06:10:14;;;;;;;25.37;14.67;;;;;;;-3.41;81.20;93070.23;1837997;76;21126;-72
2021/03/20 06:12:51;;;;;;;26.63;16.30;;;;;;;-3.34;81.24;93071.86;1832561;77;21225;-73
2021/03/20 06:15:44;;;;;;;25.63;15.33;;;;;;;-3.25;81.22;93075.81;1820730;78;21484;-73
2021/03/20 06:18:20;;;;;;;26.43;15.53;;;;;;;-3.18;80.88;93074.78;1871016;76;21159;-71
2021/03/20 06:21:20;;;;;;;26.57;14.93;;;;;;;-3.08;80.63;93076.34;1804923;79;21460;-74
2021/03/20 06:24:22;;;;;;;27.40;15.07;;;;;;;-3.02;80.39;93067.84;1816312;78;21102;-73
2021/03/20 06:26:49;;;;;;;30.63;16.13;;;;;;;-2.95;80.11;93075.34;1820442;78;21046;-72
2021/03/20 06:29:25;;;;;;;27.63;16.37;;;;;;;-2.89;79.91;93082.05;1804534;79;21114;-73
2021/03/20 06:32:00;;;;;;;26.00;15.93;;;;;;;-2.86;79.67;93083.27;1803071;79;21111;-73
2021/03/20 06:34:41;;;;;;;24.03;14.37;;;;;;;-2.85;79.17;93089.63;1803195;79;21489;-72
2021/03/20 06:37:17;;;;;;;23.47;15.20;;;;;;;-2.86;78.96;93086.71;1803044;79;21163;-73
2021/03/20 06:40:06;;;;;;;25.53;16.60;;;;;;;-2.87;78.70;93089.70;1812907;76;21599;-72
2021/03/20 06:42:35;;;;;;;29.40;16.57;;;;;;;-2.87;78.63;93085.16;1879675;76;21221;-73
2021/03/20 06:45:26;;;;;;;31.50;18.50;;;;;;;-2.86;78.87;93091.26;1816150;78;21094;-73
2021/03/20 06:47:58;;;;;;;28.80;17.50;;;;;;;-2.84;78.92;93092.52;1789137;79;21173;-74
2021/03/20 06:50:39;;;;;;;30.63;17.73;;;;;;;-2.79;78.86;93094.20;1802948;79;21564;-71
2021/03/20 06:53:09;;;;;;;28.73;17.97;;;;;;;-2.75;78.87;93091.91;1802941;79;21067;-73
2021/03/20 06:55:39;;;;;;;17.63;11.70;;;;;;;-2.69;78.63;93099.19;1803099;79;21118;-73
2021/03/20 06:58:37;;;;;;;22.50;13.67;;;;;;;-2.67;77.80;93103.66;1803022;79;21578;-73
2021/03/20 07:01:22;;;;;;;21.67;12.37;;;;;;;-2.65;76.94;93101.98;1803132;79;21627;-73
2021/03/20 07:04:15;;;;;;;18.92;12.23;;;;;;;-2.68;76.28;93099.41;1801738;79;21083;-72
2021/03/20 07:07:08;;;;;;;23.03;14.00;;;;;;;-2.66;76.52;93106.53;1806901;75;21130;-73
2021/03/20 07:09:38;;;;;;;22.60;13.10;;;;;;;-2.64;76.05;93107.53;1882274;76;21590;-72
2021/03/20 07:12:15;;;;;;;17.70;12.33;;;;;;;-2.62;76.04;93113.34;1814433;79;21058;-73
2021/03/20 07:14:57;;;;;;;20.70;12.30;;;;;;;-2.59;75.83;93113.48;1814182;79;21194;-74
2021/03/20 07:17:35;;;;;;;20.57;13.40;;;;;;;-2.58;75.63;93115.03;1813528;79;21145;-72
2021/03/20 07:20:20;;;;;;;23.37;13.30;;;;;;;-2.58;75.38;93127.02;1814545;78;21121;-73
2021/03/20 07:22:49;;;;;;;20.83;12.87;;;;;;;-2.58;75.35;93128.34;1814516;76;21602;-73
2021/03/20 07:25:28;;;;;;;29.93;16.03;;;;;;;-2.57;74.87;93122.47;1862524;76;21473;-74
2021/03/20 07:28:30;;;;;;;21.77;12.97;;;;;;;-2.53;75.48;93128.16;1837978;76;21784;-73
2021/03/20 07:31:09;;;;;;;20.07;12.37;;;;;;;-2.50;75.26;93120.86;1785729;79;21177;-73
2021/03/20 07:33:47;;;;;;;18.00;12.33;;;;;;;-2.49;74.19;93124.30;1811429;79;21176;-74
2021/03/20 07:36:29;;;;;;;20.97;12.13;;;;;;;-2.50;73.70;93126.74;1800530;79;21572;-74
2021/03/20 07:39:14;;;;;;;17.80;11.03;;;;;;;-2.52;73.48;93133.73;1833975;78;21157;-74
2021/03/20 07:42:00;;;;;;;17.40;10.50;;;;;;;-2.49;73.46;93132.30;1813244;78;22487;-72
2021/03/20 07:44:51;;;;;;;23.67;13.10;;;;;;;-2.42;73.26;93137.90;1818844;78;21100;-74
2021/03/20 07:47:19;;;;;;;19.77;12.33;;;;;;;-2.37;72.86;93144.40;1819783;78;21115;-74
2021/03/20 07:49:47;;;;;;;22.40;13.50;;;;;;;-2.31;72.93;93143.09;1819542;78;21132;-74
2021/03/20 07:52:27;;;;;;;21.13;13.27;;;;;;;-2.27;72.83;93149.34;1819631;78;21237;-74
2021/03/20 07:55:20;;;;;;;20.57;12.83;;;;;;;-2.22;71.54;93147.04;1819638;78;21805;-73
2021/03/20 07:57:55;;;;;;;28.17;14.77;;;;;;;-2.18;71.62;93148.52;1787151;78;21130;-73
2021/03/20 08:00:28;;;;;;;22.70;14.78;;;;;;;-2.14;71.10;93147.56;1812578;78;21049;-74
2021/03/20 08:03:06;;;;;;;24.03;14.93;;;;;;;-2.08;71.04;93151.59;1815707;79;21104;-74
2021/03/20 08:05:35;;;;;;;17.17;10.93;;;;;;;-2.01;70.98;93155.09;1839446;77;21035;-74
2021/03/20 08:08:23;;;;;;;19.70;12.70;;;;;;;-1.96;70.99;93155.70;1822764;77;21401;-74
2021/03/20 08:10:57;;;;;;;17.40;12.20;;;;;;;-1.93;70.69;93154.25;1785563;80;21138;-74
2021/03/20 08:13:48;;;;;;;20.03;12.17;;;;;;;-1.90;70.37;93160.83;1785636;80;21670;-74
2021/03/20 08:16:18;;;;;;;24.77;14.67;;;;;;;-1.91;69.80;93164.05;1785709;80;21132;-72
2021/03/20 08:18:47;;;;;;;20.07;12.90;;;;;;;-1.87;70.17;93163.63;1785778;80;21061;-72
2021/03/20 08:21:32;;;;;;;18.43;12.10;;;;;;;-1.77;71.06;93162.45;1785555;79;21663;-72
2021/03/20 08:24:23;;;;;;;19.42;12.47;;;;;;;-1.70;70.87;93165.39;1785764;80;21116;-73
2021/03/20 08:27:14;;;;;;;19.00;12.83;;;;;;;-1.62;70.18;93168.55;1784579;80;21175;-74
2021/03/20 08:29:59;;;;;;;20.27;12.63;;;;;;;-1.59;69.68;93170.56;1818134;76;21044;-74
2021/03/20 08:33:04;;;;;;;19.62;12.00;;;;;;;-1.56;69.74;93171.81;1860937;76;21142;-73
2021/03/20 08:35:46;;;;;;;22.73;12.90;;;;;;;-1.54;68.54;93178.39;1859219;76;21353;-75
2021/03/20 08:38:37;;;;;;;20.47;11.87;;;;;;;-1.61;68.00;93178.68;1855116;76;21046;-73
2021/03/20 08:41:39;;;;;;;19.07;11.90;;;;;;;-1.59;68.98;93180.45;1830572;76;21451;-73
2021/03/20 08:44:22;;;;;;;19.27;12.57;;;;;;;-1.54;68.33;93178.95;1856764;76;21063;-72
2021/03/20 08:47:15;;;;;;;19.80;12.23;;;;;;;-1.45;69.21;93180.98;1843947;76;21094;-73
2021/03/20 08:50:13;;;;;;;17.47;10.80;;;;;;;-1.31;69.25;93185.52;1863767;76;21454;-73
2021/03/20 08:53:18;;;;;;;18.05;11.43;;;;;;;-1.19;68.76;93178.67;1781947;76;21107;-72
2021/03/20 08:56:02;;;;;;;16.13;11.43;;;;;;;-1.18;68.17;93185.01;1863715;76;21478;-72
2021/03/20 08:58:50;;;;;;;19.07;11.73;;;;;;;-1.17;68.24;93179.89;1837999;76;21094;-72
2021/03/20 09:01:32;;;;;;;18.17;11.23;;;;;;;-1.09;67.74;93184.92;1870019;76;21124;-73
2021/03/20 09:04:01;;;;;;;16.30;10.83;;;;;;;-0.97;67.32;93194.34;1835148;78;21452;-73
2021/03/20 09:06:40;;;;;;;22.63;12.27;;;;;;;-1.00;66.36;93193.66;1821759;78;21228;-72
2021/03/20 09:09:22;;;;;;;18.10;11.50;;;;;;;-1.00;66.57;93187.76;1857744;76;21156;-73
2021/03/20 09:11:58;;;;;;;16.90;10.97;;;;;;;-0.95;66.54;93192.10;1840743;76;21114;-73
2021/03/20 09:14:32;;;;;;;17.63;11.97;;;;;;;-0.88;66.31;93195.02;1851002;75;21151;-72
2021/03/20 09:17:07;;;;;;;15.63;9.60;;;;;;;-0.80;65.50;93198.16;1861422;76;22086;-72
2021/03/20 09:19:39;;;;;;;19.50;11.35;;;;;;;-0.73;65.30;93193.63;1837396;76;21085;-73
2021/03/20 09:22:13;;;;;;;15.25;10.23;;;;;;;-0.60;65.63;93195.77;1870747;76;21147;-72
2021/03/20 09:24:56;;;;;;;12.07;9.35;;;;;;;-0.48;64.57;93205.73;1837023;76;21091;-73
2021/03/20 09:28:05;;;;;;;15.68;10.18;;;;;;;-0.45;63.67;93197.03;1863964;76;21135;-72
2021/03/20 09:30:39;;;;;;;16.15;10.78;;;;;;;-0.45;64.48;93205.04;1839637;76;21169;-73
2021/03/20 09:33:36;;;;;;;19.82;12.58;;;;;;;-0.38;64.95;93203.38;1859306;76;21123;-73
2021/03/20 09:36:23;;;;;;;17.45;11.22;;;;;;;-0.31;64.88;93206.30;1840206;76;21109;-72
2021/03/20 09:38:57;;;;;;;20.25;12.53;;;;;;;-0.29;65.35;93202.75;1826673;78;21153;-72
2021/03/20 09:41:33;;;;;;;23.18;13.80;;;;;;;-0.28;65.99;93208.87;1838925;76;21120;-73
2021/03/20 09:44:09;;;;;;;30.23;15.00;;;;;;;-0.32;66.38;93208.75;1863913;76;21379;-73
2021/03/20 09:46:45;;;;;;;19.45;11.60;;;;;;;-0.38;66.48;93214.63;1834586;77;21462;-74
2021/03/20 09:49:20;;;;;;;15.80;9.98;;;;;;;-0.56;64.85;93218.06;1820535;78;21063;-73
2021/03/20 09:51:54;;;;;;;18.30;10.95;;;;;;;-0.74;65.97;93222.22;1860821;76;21140;-73
2021/03/20 09:54:39;;;;;;;14.20;9.15;;;;;;;-0.78;65.79;93225.89;1844663;76;21038;-75
2021/03/20 09:59:46;;;;;;;11.85;8.33;;;;;;;-0.87;65.06;93232.62;1854557;76;21062;-71
2021/03/20 10:02:27;;;;;;;10.90;7.23;;;;;;;-0.78;66.39;93232.56;1843420;76;21160;-72
2021/03/20 10:04:59;;;;;;;11.38;8.18;;;;;;;-0.61;65.95;93227.04;1865678;76;21053;-72
2021/03/20 10:07:35;;;;;;;13.45;9.50;;;;;;;-0.45;65.87;93233.89;1820486;78;21122;-74
2021/03/20 10:10:18;;;;;;;12.65;8.95;;;;;;;-0.34;63.54;93230.22;1869371;76;21192;-73
2021/03/20 10:12:51;;;;;;;11.70;8.48;;;;;;;-0.36;64.31;93237.24;1827626;76;21169;-73
2021/03/20 10:15:24;;;;;;;13.95;8.88;;;;;;;-0.16;62.81;93233.49;1820499;78;21584;-73
2021/03/20 10:18:07;;;;;;;12.43;8.38;;;;;;;-0.03;63.45;93239.87;1843059;76;21686;-73
2021/03/20 10:20:55;;;;;;;13.55;8.93;;;;;;;0.16;63.74;93237.98;1857864;76;21070;-73
2021/03/20 10:23:43;;;;;;;15.08;8.95;;;;;;;0.30;63.02;93239.00;1831335;78;21885;-72
2021/03/20 10:26:46;;;;;;;13.30;9.28;;;;;;;0.44;63.11;93245.34;1819389;76;21215;-72
2021/03/20 10:29:22;;;;;;;12.23;8.48;;;;;;;0.49;60.76;93245.12;1864490;76;21477;-72
2021/03/20 10:31:53;;;;;;;11.65;7.80;;;;;;;0.47;59.45;93250.80;1834625;78;21114;-73
2021/03/20 10:34:24;;;;;;;11.68;7.92;;;;;;;0.49;60.79;93249.14;1820351;78;21070;-73
2021/03/20 10:37:10;;;;;;;9.25;7.03;;;;;;;0.64;60.75;93251.66;1820277;78;21504;-73
2021/03/20 10:39:42;;;;;;;10.93;7.28;;;;;;;0.80;60.49;93247.77;1857139;76;21139;-73
2021/03/20 10:42:24;;;;;;;10.65;6.95;;;;;;;0.92;59.22;93257.09;1851441;76;21102;-73
2021/03/20 10:44:57;;;;;;;8.98;6.28;;;;;;;0.92;58.61;93254.42;1849165;76;21127;-73
2021/03/20 10:47:33;;;;;;;9.05;6.08;;;;;;;0.99;58.21;93256.53;1863291;76;21648;-73
2021/03/20 10:50:27;;;;;;;10.63;7.42;;;;;;;1.00;56.69;93259.42;1836188;76;21185;-73
2021/03/20 10:52:57;;;;;;;9.00;6.35;;;;;;;0.99;56.59;93257.88;1870755;76;21049;-73
2021/03/20 10:55:40;;;;;;;8.28;6.28;;;;;;;0.93;55.33;93256.75;1849048;77;21065;-73
2021/03/20 10:58:09;;;;;;;10.35;6.45;;;;;;;0.86;55.46;93259.22;1838706;77;21102;-73
2021/03/20 11:00:50;;;;;;;7.58;6.22;;;;;;;0.79;53.96;93259.03;1860182;76;21144;-73
2021/03/20 11:03:36;;;;;;;8.38;5.70;;;;;;;0.76;54.57;93258.36;1851684;76;22636;-74
2021/03/20 11:06:20;;;;;;;8.93;6.53;;;;;;;0.83;52.70;93253.22;1843214;77;22662;-74
2021/03/20 11:09:08;;;;;;;8.98;6.17;;;;;;;0.89;53.79;93253.75;1873035;75;20920;-74
2021/03/20 11:11:40;;;;;;;11.15;6.80;;;;;;;1.01;54.50;93255.63;1757707;77;21311;-73
2021/03/20 11:14:21;;;;;;;9.88;6.78;;;;;;;1.11;55.97;93254.59;1728829;82;21086;-72
2021/03/20 11:17:05;;;;;;;9.40;6.50;;;;;;;1.20;56.05;93251.23;1807243;77;21148;-73
2021/03/20 11:19:40;;;;;;;9.33;6.25;;;;;;;1.27;55.63;93256.55;1857914;77;21533;-72
2021/03/20 11:22:26;;;;;;;9.73;6.65;;;;;;;1.33;55.25;93253.30;1856164;77;21256;-72
2021/03/20 11:24:58;;;;;;;9.95;6.83;;;;;;;1.37;54.73;93250.72;1823375;76;22234;-72
2021/03/20 11:27:36;;;;;;;10.78;7.40;;;;;;;1.40;54.94;93250.81;1862870;75;21000;-72
2021/03/20 11:30:18;;;;;;;12.37;7.75;;;;;;;1.45;54.16;93252.47;1830960;76;20927;-72
2021/03/20 11:32:46;;;;;;;14.43;8.83;;;;;;;1.40;54.02;93255.41;1754674;80;21163;-72
2021/03/20 11:35:29;;;;;;;10.45;7.55;;;;;;;1.37;54.50;93257.42;1785372;79;21108;-72
2021/03/20 11:38:01;;;;;;;10.15;6.72;;;;;;;1.36;55.17;93253.19;1817662;77;22156;-73
2021/03/20 11:40:36;;;;;;;10.80;7.17;;;;;;;1.31;55.94;93258.20;1840325;77;21637;-73
2021/03/20 11:43:15;;;;;;;8.48;6.78;;;;;;;1.14;56.85;93257.94;1790366;77;21151;-73
2021/03/20 11:45:43;;;;;;;8.70;6.12;;;;;;;0.91;56.58;93258.22;1812691;79;21052;-73
2021/03/20 11:48:18;;;;;;;10.68;6.95;;;;;;;0.70;56.18;93255.68;1812323;79;21495;-73
2021/03/20 11:50:55;;;;;;;10.23;7.15;;;;;;;0.50;56.56;93256.05;1867015;76;22254;-73
2021/03/20 11:53:35;;;;;;;12.55;8.70;;;;;;;0.39;57.66;93257.05;1846640;76;21073;-73
2021/03/20 11:56:18;;;;;;;11.97;7.75;;;;;;;0.30;57.77;93248.89;1807889;78;21178;-73
2021/03/20 11:58:55;;;;;;;10.68;6.55;;;;;;;0.29;58.87;93252.69;1852414;77;21121;-72
2021/03/20 12:01:38;;;;;;;10.18;7.28;;;;;;;0.31;59.91;93252.59;1852666;77;21216;-72
2021/03/20 12:04:17;;;;;;;10.98;7.50;;;;;;;0.41;60.42;93246.00;1852647;77;22643;-72
2021/03/20 12:06:45;;;;;;;10.05;7.28;;;;;;;0.62;60.36;93249.33;1852443;77;21110;-72
2021/03/20 12:09:32;;;;;;;10.68;7.33;;;;;;;0.91;58.22;93246.17;1852434;77;21473;-72
2021/03/20 12:11:58;;;;;;;;;;;;;;;1.16;57.68;93234.82;1855227;77;21062;-72
2021/03/20 12:14:40;;;;;;;9.30;7.20;;;;;;;1.35;57.16;93235.53;1852609;77;20563;-72
2021/03/20 12:17:22;;;;;;;8.08;6.22;;;;;;;1.44;55.14;93226.23;1851900;77;21252;-71
2021/03/20 12:19:59;;;;;;;10.30;7.03;;;;;;;1.52;54.97;93227.20;1851812;77;21077;-71